sensor_id;sensor_type;location;lat;lon;timestamp;P1;durP1;ratioP1;P2;durP2;ratioP2
56537;SDS011;42435;53.292;6.000;2022-12-18T00:00:46;109.15;;;39.47;;
56537;SDS011;42435;53.292;6.000;2022-12-18T00:03:13;107.40;;;39.42;;
56537;SDS011;42435;53.292;6.000;2022-12-18T00:05:51;110.28;;;41.45;;
56537;SDS011;42435;53.292;6.000;2022-12-18T00:08:17;103.28;;;40.35;;
56537;SDS011;42435;53.292;6.000;2022-12-18T00:10:44;106.10;;;38.75;;
56537;SDS011;42435;53.292;6.000;2022-12-18T00:13:11;111.80;;;40.95;;
56537;SDS011;42435;53.292;6.000;2022-12-18T00:15:38;110.47;;;40.10;;
56537;SDS011;42435;53.292;6.000;2022-12-18T00:18:04;101.00;;;38.15;;
56537;SDS011;42435;53.292;6.000;2022-12-18T00:20:31;101.97;;;40.80;;
56537;SDS011;42435;53.292;6.000;2022-12-18T00:23:00;103.13;;;38.97;;
56537;SDS011;42435;53.292;6.000;2022-12-18T00:25:26;104.75;;;40.92;;
56537;SDS011;42435;53.292;6.000;2022-12-18T00:27:52;97.88;;;37.10;;
56537;SDS011;42435;53.292;6.000;2022-12-18T00:30:17;111.20;;;41.40;;
56537;SDS011;42435;53.292;6.000;2022-12-18T00:32:43;98.35;;;39.25;;
56537;SDS011;42435;53.292;6.000;2022-12-18T00:35:09;102.88;;;42.00;;
56537;SDS011;42435;53.292;6.000;2022-12-18T00:37:34;108.13;;;42.05;;
56537;SDS011;42435;53.292;6.000;2022-12-18T00:40:00;121.18;;;40.85;;
56537;SDS011;42435;53.292;6.000;2022-12-18T00:42:26;110.40;;;38.10;;
56537;SDS011;42435;53.292;6.000;2022-12-18T00:45:10;110.60;;;40.65;;
56537;SDS011;42435;53.292;6.000;2022-12-18T00:47:36;107.93;;;41.30;;
56537;SDS011;42435;53.292;6.000;2022-12-18T00:50:01;104.45;;;41.00;;
56537;SDS011;42435;53.292;6.000;2022-12-18T00:52:28;115.30;;;40.60;;
56537;SDS011;42435;53.292;6.000;2022-12-18T00:54:53;106.95;;;40.95;;
56537;SDS011;42435;53.292;6.000;2022-12-18T00:57:19;104.63;;;37.05;;
56537;SDS011;42435;53.292;6.000;2022-12-18T00:59:44;102.75;;;35.70;;
56537;SDS011;42435;53.292;6.000;2022-12-18T01:02:10;96.97;;;35.05;;
56537;SDS011;42435;53.292;6.000;2022-12-18T01:04:35;88.18;;;33.63;;
56537;SDS011;42435;53.292;6.000;2022-12-18T01:07:01;105.22;;;37.72;;
56537;SDS011;42435;53.292;6.000;2022-12-18T01:09:27;100.22;;;36.05;;
56537;SDS011;42435;53.292;6.000;2022-12-18T01:11:52;103.68;;;38.83;;
56537;SDS011;42435;53.292;6.000;2022-12-18T01:14:18;116.25;;;37.42;;
56537;SDS011;42435;53.292;6.000;2022-12-18T01:16:43;87.78;;;35.80;;
56537;SDS011;42435;53.292;6.000;2022-12-18T01:19:09;95.85;;;36.80;;
56537;SDS011;42435;53.292;6.000;2022-12-18T01:21:35;96.53;;;36.90;;
56537;SDS011;42435;53.292;6.000;2022-12-18T01:24:00;104.57;;;37.67;;
56537;SDS011;42435;53.292;6.000;2022-12-18T01:26:26;100.47;;;36.10;;
56537;SDS011;42435;53.292;6.000;2022-12-18T01:28:54;102.60;;;37.05;;
56537;SDS011;42435;53.292;6.000;2022-12-18T01:31:31;99.97;;;35.95;;
56537;SDS011;42435;53.292;6.000;2022-12-18T01:34:00;99.70;;;37.97;;
56537;SDS011;42435;53.292;6.000;2022-12-18T01:36:27;98.70;;;38.38;;
56537;SDS011;42435;53.292;6.000;2022-12-18T01:38:54;94.78;;;35.13;;
56537;SDS011;42435;53.292;6.000;2022-12-18T01:41:22;107.07;;;36.92;;
56537;SDS011;42435;53.292;6.000;2022-12-18T01:43:56;106.25;;;39.22;;
56537;SDS011;42435;53.292;6.000;2022-12-18T01:46:23;106.15;;;36.78;;
56537;SDS011;42435;53.292;6.000;2022-12-18T01:48:52;107.60;;;39.22;;
56537;SDS011;42435;53.292;6.000;2022-12-18T01:51:21;99.00;;;37.83;;
56537;SDS011;42435;53.292;6.000;2022-12-18T01:53:47;99.60;;;35.55;;
56537;SDS011;42435;53.292;6.000;2022-12-18T01:56:18;95.20;;;36.15;;
56537;SDS011;42435;53.292;6.000;2022-12-18T01:58:48;105.03;;;39.17;;
56537;SDS011;42435;53.292;6.000;2022-12-18T02:01:23;105.72;;;37.50;;
56537;SDS011;42435;53.292;6.000;2022-12-18T02:03:50;106.03;;;36.72;;
56537;SDS011;42435;53.292;6.000;2022-12-18T02:06:27;100.60;;;38.42;;
56537;SDS011;42435;53.292;6.000;2022-12-18T02:09:07;99.15;;;36.05;;
56537;SDS011;42435;53.292;6.000;2022-12-18T02:11:55;95.00;;;35.47;;
56537;SDS011;42435;53.292;6.000;2022-12-18T02:14:49;96.40;;;36.75;;
56537;SDS011;42435;53.292;6.000;2022-12-18T02:17:39;93.40;;;35.25;;
56537;SDS011;42435;53.292;6.000;2022-12-18T02:20:14;106.85;;;35.10;;
56537;SDS011;42435;53.292;6.000;2022-12-18T02:28:40;109.43;;;37.53;;
56537;SDS011;42435;53.292;6.000;2022-12-18T02:31:14;71.33;;;26.63;;
56537;SDS011;42435;53.292;6.000;2022-12-18T02:33:47;103.78;;;35.97;;
56537;SDS011;42435;53.292;6.000;2022-12-18T02:36:14;103.28;;;35.10;;
56537;SDS011;42435;53.292;6.000;2022-12-18T02:38:42;109.00;;;36.78;;
56537;SDS011;42435;53.292;6.000;2022-12-18T02:41:09;108.75;;;39.80;;
56537;SDS011;42435;53.292;6.000;2022-12-18T02:43:36;103.55;;;34.35;;
56537;SDS011;42435;53.292;6.000;2022-12-18T02:46:20;99.70;;;34.63;;
56537;SDS011;42435;53.292;6.000;2022-12-18T02:48:53;87.32;;;31.88;;
56537;SDS011;42435;53.292;6.000;2022-12-18T02:51:31;88.75;;;33.28;;
56537;SDS011;42435;53.292;6.000;2022-12-18T02:54:09;103.57;;;33.65;;
56537;SDS011;42435;53.292;6.000;2022-12-18T02:57:28;91.43;;;33.08;;
56537;SDS011;42435;53.292;6.000;2022-12-18T02:59:42;84.50;;;29.80;;
56537;SDS011;42435;53.292;6.000;2022-12-18T03:02:34;100.53;;;32.92;;
56537;SDS011;42435;53.292;6.000;2022-12-18T03:05:14;94.75;;;34.22;;
56537;SDS011;42435;53.292;6.000;2022-12-18T03:07:51;94.85;;;31.75;;
56537;SDS011;42435;53.292;6.000;2022-12-18T03:10:25;94.28;;;34.38;;
56537;SDS011;42435;53.292;6.000;2022-12-18T03:12:56;79.55;;;31.83;;
56537;SDS011;42435;53.292;6.000;2022-12-18T03:15:46;83.65;;;31.52;;
56537;SDS011;42435;53.292;6.000;2022-12-18T03:18:19;95.85;;;32.70;;
56537;SDS011;42435;53.292;6.000;2022-12-18T03:23:18;86.00;;;30.02;;
56537;SDS011;42435;53.292;6.000;2022-12-18T03:25:50;82.43;;;31.73;;
56537;SDS011;42435;53.292;6.000;2022-12-18T03:28:21;98.97;;;34.80;;
56537;SDS011;42435;53.292;6.000;2022-12-18T03:30:49;87.85;;;30.30;;
56537;SDS011;42435;53.292;6.000;2022-12-18T03:33:24;85.55;;;33.28;;
56537;SDS011;42435;53.292;6.000;2022-12-18T03:35:54;87.22;;;32.17;;
56537;SDS011;42435;53.292;6.000;2022-12-18T03:38:20;92.32;;;32.13;;
56537;SDS011;42435;53.292;6.000;2022-12-18T03:43:32;90.38;;;35.30;;
56537;SDS011;42435;53.292;6.000;2022-12-18T03:46:02;86.20;;;32.03;;
56537;SDS011;42435;53.292;6.000;2022-12-18T03:48:33;91.90;;;31.73;;
56537;SDS011;42435;53.292;6.000;2022-12-18T03:51:08;89.10;;;31.83;;
56537;SDS011;42435;53.292;6.000;2022-12-18T03:56:15;91.95;;;33.45;;
56537;SDS011;42435;53.292;6.000;2022-12-18T03:58:42;83.30;;;31.42;;
56537;SDS011;42435;53.292;6.000;2022-12-18T04:01:10;94.40;;;31.45;;
56537;SDS011;42435;53.292;6.000;2022-12-18T04:03:39;83.97;;;31.63;;
56537;SDS011;42435;53.292;6.000;2022-12-18T04:06:07;87.03;;;31.42;;
56537;SDS011;42435;53.292;6.000;2022-12-18T04:08:33;87.63;;;32.13;;
56537;SDS011;42435;53.292;6.000;2022-12-18T04:11:00;86.50;;;30.98;;
56537;SDS011;42435;53.292;6.000;2022-12-18T04:13:32;88.50;;;32.30;;
56537;SDS011;42435;53.292;6.000;2022-12-18T04:16:00;93.95;;;33.38;;
56537;SDS011;42435;53.292;6.000;2022-12-18T04:18:26;90.15;;;33.33;;
56537;SDS011;42435;53.292;6.000;2022-12-18T04:20:52;94.80;;;32.42;;
56537;SDS011;42435;53.292;6.000;2022-12-18T04:23:17;88.70;;;33.53;;
56537;SDS011;42435;53.292;6.000;2022-12-18T04:25:43;95.50;;;33.85;;
56537;SDS011;42435;53.292;6.000;2022-12-18T04:28:08;91.30;;;32.00;;
56537;SDS011;42435;53.292;6.000;2022-12-18T04:30:34;96.18;;;34.13;;
56537;SDS011;42435;53.292;6.000;2022-12-18T04:33:00;89.68;;;32.85;;
56537;SDS011;42435;53.292;6.000;2022-12-18T04:35:25;89.97;;;32.97;;
56537;SDS011;42435;53.292;6.000;2022-12-18T04:37:51;89.47;;;33.20;;
56537;SDS011;42435;53.292;6.000;2022-12-18T04:40:17;88.75;;;32.72;;
56537;SDS011;42435;53.292;6.000;2022-12-18T04:42:42;90.35;;;33.40;;
56537;SDS011;42435;53.292;6.000;2022-12-18T04:45:08;90.55;;;34.25;;
56537;SDS011;42435;53.292;6.000;2022-12-18T04:47:34;88.88;;;34.38;;
56537;SDS011;42435;53.292;6.000;2022-12-18T04:50:00;95.93;;;34.03;;
56537;SDS011;42435;53.292;6.000;2022-12-18T04:52:25;88.97;;;33.92;;
56537;SDS011;42435;53.292;6.000;2022-12-18T04:54:51;93.07;;;33.42;;
56537;SDS011;42435;53.292;6.000;2022-12-18T04:57:16;85.72;;;31.65;;
56537;SDS011;42435;53.292;6.000;2022-12-18T04:59:43;92.15;;;32.92;;
56537;SDS011;42435;53.292;6.000;2022-12-18T05:02:09;95.15;;;35.10;;
56537;SDS011;42435;53.292;6.000;2022-12-18T05:04:34;84.60;;;30.73;;
56537;SDS011;42435;53.292;6.000;2022-12-18T05:07:00;91.22;;;33.80;;
56537;SDS011;42435;53.292;6.000;2022-12-18T05:09:26;92.82;;;32.95;;
56537;SDS011;42435;53.292;6.000;2022-12-18T05:11:51;89.13;;;34.03;;
56537;SDS011;42435;53.292;6.000;2022-12-18T05:14:17;84.85;;;31.55;;
56537;SDS011;42435;53.292;6.000;2022-12-18T05:16:43;86.07;;;33.25;;
56537;SDS011;42435;53.292;6.000;2022-12-18T05:19:08;79.57;;;33.38;;
56537;SDS011;42435;53.292;6.000;2022-12-18T05:21:34;91.07;;;31.50;;
56537;SDS011;42435;53.292;6.000;2022-12-18T05:23:59;81.97;;;31.63;;
56537;SDS011;42435;53.292;6.000;2022-12-18T05:26:25;85.15;;;31.15;;
56537;SDS011;42435;53.292;6.000;2022-12-18T05:28:50;87.60;;;32.50;;
56537;SDS011;42435;53.292;6.000;2022-12-18T05:31:16;79.65;;;31.77;;
56537;SDS011;42435;53.292;6.000;2022-12-18T05:33:41;88.53;;;31.88;;
56537;SDS011;42435;53.292;6.000;2022-12-18T05:36:07;78.18;;;31.35;;
56537;SDS011;42435;53.292;6.000;2022-12-18T05:38:35;84.30;;;34.47;;
56537;SDS011;42435;53.292;6.000;2022-12-18T05:41:03;86.15;;;34.70;;
56537;SDS011;42435;53.292;6.000;2022-12-18T05:43:29;89.55;;;32.95;;
56537;SDS011;42435;53.292;6.000;2022-12-18T05:45:55;86.65;;;32.70;;
56537;SDS011;42435;53.292;6.000;2022-12-18T05:48:21;88.35;;;34.33;;
56537;SDS011;42435;53.292;6.000;2022-12-18T05:50:47;81.35;;;34.05;;
56537;SDS011;42435;53.292;6.000;2022-12-18T05:53:15;75.28;;;31.70;;
56537;SDS011;42435;53.292;6.000;2022-12-18T05:55:44;72.47;;;29.90;;
56537;SDS011;42435;53.292;6.000;2022-12-18T05:58:10;74.13;;;31.08;;
56537;SDS011;42435;53.292;6.000;2022-12-18T06:00:38;79.85;;;33.15;;
56537;SDS011;42435;53.292;6.000;2022-12-18T06:03:05;74.65;;;30.55;;
56537;SDS011;42435;53.292;6.000;2022-12-18T06:05:35;76.07;;;29.80;;
56537;SDS011;42435;53.292;6.000;2022-12-18T06:08:06;64.88;;;27.10;;
56537;SDS011;42435;53.292;6.000;2022-12-18T06:10:32;66.70;;;27.10;;
56537;SDS011;42435;53.292;6.000;2022-12-18T06:12:58;61.63;;;26.17;;
56537;SDS011;42435;53.292;6.000;2022-12-18T06:15:24;68.85;;;26.92;;
56537;SDS011;42435;53.292;6.000;2022-12-18T06:17:50;72.38;;;28.65;;
56537;SDS011;42435;53.292;6.000;2022-12-18T06:20:16;64.80;;;26.17;;
56537;SDS011;42435;53.292;6.000;2022-12-18T06:22:42;82.78;;;29.95;;
56537;SDS011;42435;53.292;6.000;2022-12-18T06:25:08;71.70;;;27.35;;
56537;SDS011;42435;53.292;6.000;2022-12-18T06:27:34;58.42;;;25.92;;
56537;SDS011;42435;53.292;6.000;2022-12-18T06:29:59;66.40;;;27.48;;
56537;SDS011;42435;53.292;6.000;2022-12-18T06:32:25;60.53;;;25.17;;
56537;SDS011;42435;53.292;6.000;2022-12-18T06:34:51;60.90;;;25.83;;
56537;SDS011;42435;53.292;6.000;2022-12-18T06:37:18;54.75;;;24.27;;
56537;SDS011;42435;53.292;6.000;2022-12-18T06:39:44;64.88;;;27.40;;
56537;SDS011;42435;53.292;6.000;2022-12-18T06:42:09;58.03;;;27.63;;
56537;SDS011;42435;53.292;6.000;2022-12-18T06:44:35;58.15;;;27.23;;
56537;SDS011;42435;53.292;6.000;2022-12-18T06:47:01;58.08;;;24.08;;
56537;SDS011;42435;53.292;6.000;2022-12-18T06:49:26;57.30;;;24.08;;
56537;SDS011;42435;53.292;6.000;2022-12-18T06:51:52;58.95;;;25.23;;
56537;SDS011;42435;53.292;6.000;2022-12-18T06:54:17;62.65;;;27.35;;
56537;SDS011;42435;53.292;6.000;2022-12-18T06:56:44;56.25;;;26.55;;
56537;SDS011;42435;53.292;6.000;2022-12-18T06:59:10;60.05;;;25.25;;
56537;SDS011;42435;53.292;6.000;2022-12-18T07:01:37;56.97;;;24.92;;
56537;SDS011;42435;53.292;6.000;2022-12-18T07:04:03;57.13;;;24.40;;
56537;SDS011;42435;53.292;6.000;2022-12-18T07:06:28;61.13;;;25.63;;
56537;SDS011;42435;53.292;6.000;2022-12-18T07:08:54;60.97;;;25.85;;
56537;SDS011;42435;53.292;6.000;2022-12-18T07:11:20;57.63;;;24.33;;
56537;SDS011;42435;53.292;6.000;2022-12-18T07:13:46;59.58;;;25.63;;
56537;SDS011;42435;53.292;6.000;2022-12-18T07:16:13;56.13;;;24.75;;
56537;SDS011;42435;53.292;6.000;2022-12-18T07:18:40;56.35;;;27.10;;
56537;SDS011;42435;53.292;6.000;2022-12-18T07:21:07;54.22;;;25.02;;
56537;SDS011;42435;53.292;6.000;2022-12-18T07:23:36;52.03;;;23.83;;
56537;SDS011;42435;53.292;6.000;2022-12-18T07:26:05;54.65;;;23.65;;
56537;SDS011;42435;53.292;6.000;2022-12-18T07:28:39;51.83;;;22.60;;
56537;SDS011;42435;53.292;6.000;2022-12-18T07:31:12;50.85;;;21.90;;
56537;SDS011;42435;53.292;6.000;2022-12-18T07:33:39;49.75;;;23.65;;
56537;SDS011;42435;53.292;6.000;2022-12-18T07:36:06;55.30;;;24.15;;
56537;SDS011;42435;53.292;6.000;2022-12-18T07:38:33;51.97;;;23.38;;
56537;SDS011;42435;53.292;6.000;2022-12-18T07:41:00;56.60;;;26.63;;
56537;SDS011;42435;53.292;6.000;2022-12-18T07:43:31;54.65;;;26.75;;
56537;SDS011;42435;53.292;6.000;2022-12-18T07:45:56;49.58;;;24.23;;
56537;SDS011;42435;53.292;6.000;2022-12-18T07:48:22;53.95;;;25.33;;
56537;SDS011;42435;53.292;6.000;2022-12-18T07:50:48;50.08;;;22.10;;
56537;SDS011;42435;53.292;6.000;2022-12-18T07:53:16;57.60;;;25.92;;
56537;SDS011;42435;53.292;6.000;2022-12-18T07:55:42;50.17;;;23.08;;
56537;SDS011;42435;53.292;6.000;2022-12-18T07:58:08;53.53;;;23.02;;
56537;SDS011;42435;53.292;6.000;2022-12-18T08:00:33;64.35;;;30.48;;
56537;SDS011;42435;53.292;6.000;2022-12-18T08:02:59;48.80;;;22.30;;
56537;SDS011;42435;53.292;6.000;2022-12-18T08:05:25;54.70;;;23.15;;
56537;SDS011;42435;53.292;6.000;2022-12-18T08:07:51;54.97;;;23.88;;
56537;SDS011;42435;53.292;6.000;2022-12-18T08:10:17;53.97;;;23.02;;
56537;SDS011;42435;53.292;6.000;2022-12-18T08:12:44;52.53;;;24.58;;
56537;SDS011;42435;53.292;6.000;2022-12-18T08:15:10;48.58;;;21.15;;
56537;SDS011;42435;53.292;6.000;2022-12-18T08:17:35;58.03;;;22.45;;
56537;SDS011;42435;53.292;6.000;2022-12-18T08:20:01;50.58;;;21.55;;
56537;SDS011;42435;53.292;6.000;2022-12-18T08:22:28;43.70;;;21.65;;
56537;SDS011;42435;53.292;6.000;2022-12-18T08:24:53;48.33;;;20.63;;
56537;SDS011;42435;53.292;6.000;2022-12-18T08:27:19;50.47;;;21.83;;
56537;SDS011;42435;53.292;6.000;2022-12-18T08:29:45;52.13;;;21.90;;
56537;SDS011;42435;53.292;6.000;2022-12-18T08:32:10;46.88;;;21.20;;
56537;SDS011;42435;53.292;6.000;2022-12-18T08:34:36;48.40;;;20.92;;
56537;SDS011;42435;53.292;6.000;2022-12-18T08:37:01;47.78;;;21.10;;
56537;SDS011;42435;53.292;6.000;2022-12-18T08:39:28;42.85;;;20.55;;
56537;SDS011;42435;53.292;6.000;2022-12-18T08:41:54;44.33;;;21.70;;
56537;SDS011;42435;53.292;6.000;2022-12-18T08:44:38;55.55;;;23.30;;
56537;SDS011;42435;53.292;6.000;2022-12-18T08:47:07;45.78;;;21.60;;
56537;SDS011;42435;53.292;6.000;2022-12-18T08:49:34;48.95;;;21.13;;
56537;SDS011;42435;53.292;6.000;2022-12-18T08:52:01;46.40;;;20.92;;
56537;SDS011;42435;53.292;6.000;2022-12-18T08:54:28;48.03;;;21.55;;
56537;SDS011;42435;53.292;6.000;2022-12-18T08:56:56;43.05;;;20.30;;
56537;SDS011;42435;53.292;6.000;2022-12-18T08:59:22;44.47;;;21.00;;
56537;SDS011;42435;53.292;6.000;2022-12-18T09:01:49;47.50;;;19.83;;
56537;SDS011;42435;53.292;6.000;2022-12-18T09:04:15;43.63;;;20.58;;
56537;SDS011;42435;53.292;6.000;2022-12-18T09:06:41;50.53;;;20.27;;
56537;SDS011;42435;53.292;6.000;2022-12-18T09:09:06;47.72;;;21.13;;
56537;SDS011;42435;53.292;6.000;2022-12-18T09:11:34;38.90;;;19.92;;
56537;SDS011;42435;53.292;6.000;2022-12-18T09:14:00;40.60;;;19.95;;
56537;SDS011;42435;53.292;6.000;2022-12-18T09:16:26;40.13;;;19.83;;
56537;SDS011;42435;53.292;6.000;2022-12-18T09:18:57;43.22;;;20.58;;
56537;SDS011;42435;53.292;6.000;2022-12-18T09:21:27;46.22;;;21.13;;
56537;SDS011;42435;53.292;6.000;2022-12-18T09:23:55;44.00;;;20.52;;
56537;SDS011;42435;53.292;6.000;2022-12-18T09:26:21;40.63;;;20.33;;
56537;SDS011;42435;53.292;6.000;2022-12-18T09:28:48;40.22;;;19.75;;
56537;SDS011;42435;53.292;6.000;2022-12-18T09:31:14;41.15;;;19.92;;
56537;SDS011;42435;53.292;6.000;2022-12-18T09:33:40;40.03;;;19.80;;
56537;SDS011;42435;53.292;6.000;2022-12-18T09:36:06;40.75;;;19.17;;
56537;SDS011;42435;53.292;6.000;2022-12-18T09:38:34;37.10;;;18.25;;
56537;SDS011;42435;53.292;6.000;2022-12-18T09:43:48;38.63;;;19.02;;
56537;SDS011;42435;53.292;6.000;2022-12-18T09:46:20;36.00;;;17.23;;
56537;SDS011;42435;53.292;6.000;2022-12-18T09:48:52;34.78;;;18.13;;
56537;SDS011;42435;53.292;6.000;2022-12-18T09:51:44;37.88;;;18.63;;
56537;SDS011;42435;53.292;6.000;2022-12-18T09:54:40;28.35;;;16.00;;
56537;SDS011;42435;53.292;6.000;2022-12-18T09:57:10;34.28;;;16.90;;
56537;SDS011;42435;53.292;6.000;2022-12-18T09:59:39;33.22;;;16.45;;
56537;SDS011;42435;53.292;6.000;2022-12-18T10:02:14;31.05;;;16.88;;
56537;SDS011;42435;53.292;6.000;2022-12-18T10:04:41;34.83;;;16.10;;
56537;SDS011;42435;53.292;6.000;2022-12-18T10:07:15;32.15;;;17.13;;
56537;SDS011;42435;53.292;6.000;2022-12-18T10:16:03;28.83;;;15.13;;
56537;SDS011;42435;53.292;6.000;2022-12-18T10:18:33;26.90;;;13.30;;
56537;SDS011;42435;53.292;6.000;2022-12-18T10:21:26;26.67;;;14.90;;
56537;SDS011;42435;53.292;6.000;2022-12-18T10:24:04;28.35;;;15.45;;
56537;SDS011;42435;53.292;6.000;2022-12-18T10:26:39;29.95;;;16.48;;
56537;SDS011;42435;53.292;6.000;2022-12-18T10:29:12;24.30;;;13.98;;
56537;SDS011;42435;53.292;6.000;2022-12-18T10:31:40;25.30;;;13.25;;
56537;SDS011;42435;53.292;6.000;2022-12-18T10:34:10;18.95;;;12.10;;
56537;SDS011;42435;53.292;6.000;2022-12-18T10:36:36;21.73;;;12.25;;
56537;SDS011;42435;53.292;6.000;2022-12-18T10:39:15;23.25;;;11.75;;
56537;SDS011;42435;53.292;6.000;2022-12-18T10:41:41;25.92;;;13.70;;
56537;SDS011;42435;53.292;6.000;2022-12-18T10:44:17;22.40;;;13.23;;
56537;SDS011;42435;53.292;6.000;2022-12-18T10:46:50;28.02;;;14.90;;
56537;SDS011;42435;53.292;6.000;2022-12-18T10:49:25;28.02;;;15.63;;
56537;SDS011;42435;53.292;6.000;2022-12-18T10:52:06;28.23;;;15.23;;
56537;SDS011;42435;53.292;6.000;2022-12-18T10:54:46;32.25;;;17.20;;
56537;SDS011;42435;53.292;6.000;2022-12-18T10:57:38;24.73;;;13.63;;
56537;SDS011;42435;53.292;6.000;2022-12-18T11:00:25;22.88;;;12.35;;
56537;SDS011;42435;53.292;6.000;2022-12-18T11:02:53;25.98;;;15.82;;
56537;SDS011;42435;53.292;6.000;2022-12-18T11:05:27;25.55;;;13.48;;
56537;SDS011;42435;53.292;6.000;2022-12-18T11:07:55;24.70;;;12.98;;
56537;SDS011;42435;53.292;6.000;2022-12-18T11:10:22;22.73;;;12.80;;
56537;SDS011;42435;53.292;6.000;2022-12-18T11:12:53;20.67;;;12.65;;
56537;SDS011;42435;53.292;6.000;2022-12-18T11:15:34;22.77;;;12.95;;
56537;SDS011;42435;53.292;6.000;2022-12-18T11:17:59;23.73;;;12.25;;
56537;SDS011;42435;53.292;6.000;2022-12-18T11:20:32;23.17;;;12.88;;
56537;SDS011;42435;53.292;6.000;2022-12-18T11:23:01;25.27;;;14.13;;
56537;SDS011;42435;53.292;6.000;2022-12-18T11:25:30;23.27;;;12.77;;
56537;SDS011;42435;53.292;6.000;2022-12-18T11:30:34;22.70;;;13.30;;
56537;SDS011;42435;53.292;6.000;2022-12-18T11:35:48;26.38;;;13.25;;
56537;SDS011;42435;53.292;6.000;2022-12-18T11:38:24;24.58;;;14.63;;
56537;SDS011;42435;53.292;6.000;2022-12-18T11:41:00;23.88;;;13.18;;
56537;SDS011;42435;53.292;6.000;2022-12-18T11:43:45;23.80;;;13.63;;
56537;SDS011;42435;53.292;6.000;2022-12-18T11:46:32;24.20;;;12.93;;
56537;SDS011;42435;53.292;6.000;2022-12-18T11:49:11;20.80;;;12.27;;
56537;SDS011;42435;53.292;6.000;2022-12-18T11:52:07;20.48;;;12.27;;
56537;SDS011;42435;53.292;6.000;2022-12-18T11:54:40;25.35;;;13.85;;
56537;SDS011;42435;53.292;6.000;2022-12-18T11:57:09;24.27;;;12.95;;
56537;SDS011;42435;53.292;6.000;2022-12-18T12:00:03;22.30;;;11.98;;
56537;SDS011;42435;53.292;6.000;2022-12-18T12:08:56;18.85;;;10.43;;
56537;SDS011;42435;53.292;6.000;2022-12-18T12:14:10;20.90;;;11.70;;
56537;SDS011;42435;53.292;6.000;2022-12-18T12:24:49;20.30;;;10.98;;
56537;SDS011;42435;53.292;6.000;2022-12-18T12:30:09;18.77;;;12.10;;
56537;SDS011;42435;53.292;6.000;2022-12-18T12:40:36;18.58;;;10.52;;
56537;SDS011;42435;53.292;6.000;2022-12-18T12:43:20;19.50;;;12.27;;
56537;SDS011;42435;53.292;6.000;2022-12-18T12:46:06;18.75;;;10.40;;
56537;SDS011;42435;53.292;6.000;2022-12-18T12:51:16;16.63;;;10.07;;
56537;SDS011;42435;53.292;6.000;2022-12-18T12:53:47;20.88;;;11.82;;
56537;SDS011;42435;53.292;6.000;2022-12-18T12:56:20;17.35;;;10.38;;
56537;SDS011;42435;53.292;6.000;2022-12-18T13:01:31;16.98;;;9.30;;
56537;SDS011;42435;53.292;6.000;2022-12-18T13:06:48;14.80;;;8.27;;
56537;SDS011;42435;53.292;6.000;2022-12-18T13:09:34;13.93;;;8.50;;
56537;SDS011;42435;53.292;6.000;2022-12-18T13:13:08;16.73;;;9.32;;
56537;SDS011;42435;53.292;6.000;2022-12-18T13:20:37;12.57;;;7.68;;
56537;SDS011;42435;53.292;6.000;2022-12-18T13:31:15;13.93;;;8.35;;
56537;SDS011;42435;53.292;6.000;2022-12-18T13:34:18;15.30;;;8.18;;
56537;SDS011;42435;53.292;6.000;2022-12-18T13:36:46;14.85;;;7.75;;
56537;SDS011;42435;53.292;6.000;2022-12-18T13:44:56;14.30;;;8.07;;
56537;SDS011;42435;53.292;6.000;2022-12-18T13:47:35;12.35;;;7.25;;
56537;SDS011;42435;53.292;6.000;2022-12-18T13:50:09;13.05;;;7.82;;
56537;SDS011;42435;53.292;6.000;2022-12-18T13:52:52;15.63;;;8.20;;
56537;SDS011;42435;53.292;6.000;2022-12-18T13:55:19;13.15;;;8.30;;
56537;SDS011;42435;53.292;6.000;2022-12-18T13:57:45;15.43;;;9.13;;
56537;SDS011;42435;53.292;6.000;2022-12-18T14:02:49;14.10;;;7.68;;
56537;SDS011;42435;53.292;6.000;2022-12-18T14:05:22;11.57;;;7.65;;
56537;SDS011;42435;53.292;6.000;2022-12-18T14:07:49;15.73;;;9.38;;
56537;SDS011;42435;53.292;6.000;2022-12-18T14:10:16;18.55;;;9.27;;
56537;SDS011;42435;53.292;6.000;2022-12-18T14:12:44;13.23;;;7.88;;
56537;SDS011;42435;53.292;6.000;2022-12-18T14:17:51;14.45;;;8.48;;
56537;SDS011;42435;53.292;6.000;2022-12-18T14:20:20;13.77;;;8.63;;
56537;SDS011;42435;53.292;6.000;2022-12-18T14:22:47;14.30;;;8.85;;
56537;SDS011;42435;53.292;6.000;2022-12-18T14:27:44;15.27;;;8.75;;
56537;SDS011;42435;53.292;6.000;2022-12-18T14:30:25;15.90;;;8.93;;
56537;SDS011;42435;53.292;6.000;2022-12-18T14:33:11;14.02;;;9.50;;
56537;SDS011;42435;53.292;6.000;2022-12-18T14:35:40;14.20;;;8.68;;
56537;SDS011;42435;53.292;6.000;2022-12-18T14:38:18;12.48;;;9.15;;
56537;SDS011;42435;53.292;6.000;2022-12-18T14:41:05;16.17;;;9.88;;
56537;SDS011;42435;53.292;6.000;2022-12-18T14:46:05;16.67;;;9.80;;
56537;SDS011;42435;53.292;6.000;2022-12-18T14:48:50;11.95;;;7.68;;
56537;SDS011;42435;53.292;6.000;2022-12-18T14:51:17;12.32;;;8.00;;
56537;SDS011;42435;53.292;6.000;2022-12-18T14:53:51;14.57;;;7.80;;
56537;SDS011;42435;53.292;6.000;2022-12-18T14:56:27;12.90;;;8.40;;
56537;SDS011;42435;53.292;6.000;2022-12-18T14:58:58;11.02;;;6.88;;
56537;SDS011;42435;53.292;6.000;2022-12-18T15:01:34;13.52;;;8.13;;
56537;SDS011;42435;53.292;6.000;2022-12-18T15:04:24;11.30;;;7.40;;
56537;SDS011;42435;53.292;6.000;2022-12-18T15:09:42;13.38;;;8.18;;
56537;SDS011;42435;53.292;6.000;2022-12-18T15:12:21;15.90;;;8.57;;
56537;SDS011;42435;53.292;6.000;2022-12-18T15:14:50;13.80;;;9.85;;
56537;SDS011;42435;53.292;6.000;2022-12-18T15:17:17;14.52;;;8.65;;
56537;SDS011;42435;53.292;6.000;2022-12-18T15:19:45;16.00;;;9.02;;
56537;SDS011;42435;53.292;6.000;2022-12-18T15:22:16;14.93;;;8.43;;
56537;SDS011;42435;53.292;6.000;2022-12-18T15:24:53;14.02;;;8.27;;
56537;SDS011;42435;53.292;6.000;2022-12-18T15:27:21;12.65;;;8.10;;
56537;SDS011;42435;53.292;6.000;2022-12-18T15:32:40;15.43;;;8.38;;
56537;SDS011;42435;53.292;6.000;2022-12-18T15:37:44;14.48;;;8.73;;
56537;SDS011;42435;53.292;6.000;2022-12-18T15:40:17;13.88;;;7.55;;
56537;SDS011;42435;53.292;6.000;2022-12-18T15:42:44;13.23;;;8.13;;
56537;SDS011;42435;53.292;6.000;2022-12-18T15:45:30;15.20;;;8.80;;
56537;SDS011;42435;53.292;6.000;2022-12-18T15:47:55;13.70;;;8.75;;
56537;SDS011;42435;53.292;6.000;2022-12-18T15:50:21;12.95;;;8.05;;
56537;SDS011;42435;53.292;6.000;2022-12-18T15:52:47;11.65;;;7.45;;
56537;SDS011;42435;53.292;6.000;2022-12-18T15:55:17;15.75;;;8.10;;
56537;SDS011;42435;53.292;6.000;2022-12-18T15:58:04;12.50;;;7.95;;
56537;SDS011;42435;53.292;6.000;2022-12-18T16:00:31;13.70;;;7.78;;
56537;SDS011;42435;53.292;6.000;2022-12-18T16:02:59;12.80;;;7.85;;
56537;SDS011;42435;53.292;6.000;2022-12-18T16:05:24;13.48;;;7.88;;
56537;SDS011;42435;53.292;6.000;2022-12-18T16:07:52;12.15;;;8.55;;
56537;SDS011;42435;53.292;6.000;2022-12-18T16:10:17;14.90;;;8.25;;
56537;SDS011;42435;53.292;6.000;2022-12-18T16:12:43;13.70;;;8.13;;
56537;SDS011;42435;53.292;6.000;2022-12-18T16:15:10;15.60;;;8.88;;
56537;SDS011;42435;53.292;6.000;2022-12-18T16:17:38;12.23;;;8.25;;
56537;SDS011;42435;53.292;6.000;2022-12-18T16:20:05;15.10;;;7.88;;